createdAt,value
2017-08-09T12:13:29.698Z,1016.65
2017-08-09T12:13:30.275Z,1016.70
2017-08-09T12:13:30.880Z,1016.66
2017-08-09T12:13:31.477Z,1016.70
2017-08-09T12:13:32.074Z,1016.66
2017-08-09T12:13:32.677Z,1016.69
2017-08-09T12:13:33.270Z,1016.71
2017-08-09T12:14:27.754Z,1016.68
2017-08-09T12:14:28.330Z,1016.64
2017-08-09T12:14:28.931Z,1016.64
2017-08-09T12:14:29.533Z,1016.66
2017-08-09T12:14:30.135Z,1016.64
2017-08-09T12:14:30.738Z,1016.63
2017-08-09T12:14:31.331Z,1016.64
2017-08-09T12:14:31.930Z,1016.66
2017-08-09T12:15:25.490Z,1016.67
2017-08-09T12:15:26.089Z,1016.63
2017-08-09T12:15:26.686Z,1016.66
2017-08-09T12:15:27.286Z,1016.65
2017-08-09T12:15:27.889Z,1016.69
2017-08-09T12:15:28.489Z,1016.66
2017-08-09T12:15:29.090Z,1016.67
2017-08-09T12:15:29.687Z,1016.69
2017-08-09T12:16:23.774Z,1016.79
2017-08-09T12:16:24.363Z,1016.76
2017-08-09T12:16:24.954Z,1016.75
2017-08-09T12:16:25.554Z,1016.75
2017-08-09T12:16:26.161Z,1016.75
2017-08-09T12:16:26.759Z,1016.74
2017-08-09T12:16:27.359Z,1016.71
2017-08-09T12:17:20.897Z,1016.74
2017-08-09T12:17:21.497Z,1016.71
2017-08-09T12:17:22.097Z,1016.70
2017-08-09T12:17:22.698Z,1016.70
2017-08-09T12:17:23.293Z,1016.72
2017-08-09T12:17:23.895Z,1016.73
2017-08-09T12:17:24.496Z,1016.73
2017-08-09T12:17:25.096Z,1016.72
2017-08-09T12:18:18.685Z,1016.74
2017-08-09T12:18:19.253Z,1016.75
2017-08-09T12:18:19.851Z,1016.73
2017-08-09T12:18:20.453Z,1016.76
2017-08-09T12:18:21.054Z,1016.74
2017-08-09T12:18:21.655Z,1016.74
2017-08-09T12:18:22.255Z,1016.78
2017-08-09T12:18:22.851Z,1016.73
2017-08-09T12:19:16.408Z,1016.70
2017-08-09T12:19:17.005Z,1016.76
2017-08-09T12:19:17.603Z,1016.72
2017-08-09T12:19:18.203Z,1016.73
2017-08-09T12:19:18.805Z,1016.73
2017-08-09T12:19:19.407Z,1016.70
2017-08-09T12:19:20.005Z,1016.73
2017-08-09T12:19:20.608Z,1016.75
2017-08-09T12:20:14.168Z,1016.79
2017-08-09T12:20:14.769Z,1016.78
2017-08-09T12:20:15.385Z,1016.80
2017-08-09T12:20:15.953Z,1016.81
2017-08-09T12:20:16.556Z,1016.80
2017-08-09T12:20:17.153Z,1016.80
2017-08-09T12:20:17.752Z,1016.80
2017-08-09T12:20:18.353Z,1016.79
2017-08-09T12:21:12.839Z,1016.79
2017-08-09T12:21:13.435Z,1016.78
2017-08-09T12:21:14.115Z,1016.82
2017-08-09T12:21:14.633Z,1016.81
2017-08-09T12:21:15.233Z,1016.81
2017-08-09T12:21:15.834Z,1016.81
2017-08-09T12:21:16.437Z,1016.80
2017-08-09T12:21:17.036Z,1016.78
2017-08-09T12:22:10.491Z,1016.85
2017-08-09T12:22:11.087Z,1016.87
2017-08-09T12:22:11.693Z,1016.85
2017-08-09T12:22:12.289Z,1016.85
2017-08-09T12:22:12.889Z,1016.84
2017-08-09T12:22:13.486Z,1016.83
2017-08-09T12:22:14.082Z,1016.84
2017-08-09T12:22:14.689Z,1016.81
2017-08-09T12:23:08.257Z,1016.79
2017-08-09T12:23:08.840Z,1016.76
2017-08-09T12:23:09.437Z,1016.77
2017-08-09T12:23:10.040Z,1016.78
2017-08-09T12:23:10.637Z,1016.76
2017-08-09T12:23:11.240Z,1016.80
2017-08-09T12:23:11.844Z,1016.77
2017-08-09T12:23:12.444Z,1016.77
2017-08-09T12:24:06.034Z,1016.66
2017-08-09T12:24:06.595Z,1016.69
2017-08-09T12:24:07.198Z,1016.66
2017-08-09T12:24:07.791Z,1016.67
2017-08-09T12:24:08.394Z,1016.67
2017-08-09T12:24:08.997Z,1016.68
2017-08-09T12:24:09.597Z,1016.70
2017-08-09T12:24:10.335Z,1016.68
2017-08-09T12:25:03.767Z,1016.71
2017-08-09T12:25:04.351Z,1016.68
2017-08-09T12:25:04.951Z,1016.70
2017-08-09T12:25:05.551Z,1016.66
2017-08-09T12:25:06.151Z,1016.70
2017-08-09T12:25:06.749Z,1016.72
2017-08-09T12:25:07.348Z,1016.72
2017-08-09T12:25:07.950Z,1016.74
2017-08-09T12:26:02.428Z,1016.62
2017-08-09T12:26:03.027Z,1016.64
2017-08-09T12:26:04.493Z,1016.65
2017-08-09T12:26:04.993Z,1016.60
2017-08-09T12:26:05.596Z,1016.64
2017-08-09T12:26:06.201Z,1016.63
2017-08-09T12:26:06.799Z,1016.60
2017-08-09T12:27:00.282Z,1016.61
2017-08-09T12:27:00.879Z,1016.62
2017-08-09T12:27:01.480Z,1016.59
2017-08-09T12:27:02.077Z,1016.60
2017-08-09T12:27:02.684Z,1016.60
2017-08-09T12:27:03.280Z,1016.60
2017-08-09T12:27:03.887Z,1016.55
2017-08-09T12:27:04.483Z,1016.55
2017-08-09T12:27:58.958Z,1016.62
2017-08-09T12:27:59.555Z,1016.66
2017-08-09T12:28:00.153Z,1016.62
2017-08-09T12:28:00.751Z,1016.66
2017-08-09T12:28:01.365Z,1016.65
2017-08-09T12:28:01.970Z,1016.66
2017-08-09T12:28:02.576Z,1016.67
2017-08-09T12:28:03.155Z,1016.65
2017-08-09T12:28:57.123Z,1016.74
2017-08-09T12:28:57.714Z,1016.78
2017-08-09T12:28:58.316Z,1016.76
2017-08-09T12:28:58.914Z,1016.75
2017-08-09T12:28:59.514Z,1016.75
2017-08-09T12:29:00.121Z,1016.76
2017-08-09T12:29:00.722Z,1016.76
2017-08-09T12:29:55.111Z,1016.73
2017-08-09T12:29:55.675Z,1016.77
2017-08-09T12:29:56.279Z,1016.75
2017-08-09T12:29:56.878Z,1016.75
2017-08-09T12:29:57.476Z,1016.76
2017-08-09T12:29:58.079Z,1016.76
2017-08-09T12:29:58.678Z,1016.75
2017-08-09T12:29:59.277Z,1016.76
2017-08-09T12:30:52.843Z,1016.71
2017-08-09T12:30:53.433Z,1016.70
2017-08-09T12:30:54.028Z,1016.72
2017-08-09T12:30:54.628Z,1016.75
2017-08-09T12:30:55.232Z,1016.73
2017-08-09T12:30:55.832Z,1016.72
2017-08-09T12:30:56.428Z,1016.71
2017-08-09T12:30:57.032Z,1016.73
2017-08-09T12:31:51.513Z,1016.72
2017-08-09T12:31:52.112Z,1016.71
2017-08-09T12:31:52.709Z,1016.71
2017-08-09T12:31:53.311Z,1016.70
2017-08-09T12:31:53.907Z,1016.72
2017-08-09T12:31:54.507Z,1016.73
2017-08-09T12:31:55.108Z,1016.73
2017-08-09T12:31:55.707Z,1016.70
2017-08-09T12:32:49.262Z,1016.75
2017-08-09T12:32:49.866Z,1016.76
2017-08-09T12:32:50.461Z,1016.77
2017-08-09T12:32:51.064Z,1016.73
2017-08-09T12:32:51.665Z,1016.76
2017-08-09T12:32:52.268Z,1016.78
2017-08-09T12:32:52.861Z,1016.79
2017-08-09T12:32:53.463Z,1016.76
2017-08-09T12:33:47.942Z,1016.74
2017-08-09T12:33:48.546Z,1016.74
2017-08-09T12:33:49.137Z,1016.73
2017-08-09T12:33:49.732Z,1016.74
2017-08-09T12:33:50.333Z,1016.74
2017-08-09T12:33:50.933Z,1016.75
2017-08-09T12:33:51.532Z,1016.74
2017-08-09T12:33:52.140Z,1016.72
2017-08-09T12:34:45.592Z,1016.75
2017-08-09T12:34:46.190Z,1016.76
2017-08-09T12:34:46.793Z,1016.76
2017-08-09T12:34:47.390Z,1016.74
2017-08-09T12:34:47.996Z,1016.74
2017-08-09T12:34:48.590Z,1016.75
2017-08-09T12:34:49.189Z,1016.75
2017-08-09T12:34:49.790Z,1016.72
2017-08-09T12:35:43.368Z,1016.70
2017-08-09T12:35:43.945Z,1016.69
2017-08-09T12:35:44.544Z,1016.70
2017-08-09T12:35:45.144Z,1016.73
2017-08-09T12:35:45.754Z,1016.71
2017-08-09T12:35:46.349Z,1016.71
2017-08-09T12:35:46.948Z,1016.73
2017-08-09T12:35:47.545Z,1016.69
2017-08-09T12:36:41.108Z,1016.81
2017-08-09T12:36:41.715Z,1016.80
2017-08-09T12:36:42.300Z,1016.78
2017-08-09T12:36:42.898Z,1016.80
2017-08-09T12:36:43.499Z,1016.79
2017-08-09T12:36:44.100Z,1016.78
2017-08-09T12:36:44.696Z,1016.80
2017-08-09T12:36:45.299Z,1016.80
2017-08-09T12:37:39.777Z,1016.87
2017-08-09T12:37:40.376Z,1016.86
2017-08-09T12:37:40.975Z,1016.85
2017-08-09T12:37:41.576Z,1016.87
2017-08-09T12:37:42.174Z,1016.84
2017-08-09T12:37:42.772Z,1016.90
2017-08-09T12:37:43.375Z,1016.88
2017-08-09T12:37:43.969Z,1016.84
2017-08-09T12:38:38.046Z,1016.88
2017-08-09T12:38:38.640Z,1016.83
2017-08-09T12:38:39.239Z,1016.85
2017-08-09T12:38:39.843Z,1016.88
2017-08-09T12:38:40.442Z,1016.84
2017-08-09T12:38:41.041Z,1016.84
2017-08-09T12:38:41.639Z,1016.88
2017-08-09T12:39:36.103Z,1016.92
2017-08-09T12:39:36.699Z,1016.88
2017-08-09T12:39:37.296Z,1016.91
2017-08-09T12:39:37.900Z,1016.90
2017-08-09T12:39:38.503Z,1016.90
2017-08-09T12:39:39.100Z,1016.88
2017-08-09T12:39:39.699Z,1016.91
2017-08-09T12:39:40.297Z,1016.88
2017-08-09T12:40:34.807Z,1016.94
2017-08-09T12:40:35.380Z,1016.93
2017-08-09T12:40:35.979Z,1016.93
2017-08-09T12:40:36.572Z,1016.95
2017-08-09T12:40:37.174Z,1016.96
2017-08-09T12:40:37.777Z,1016.95
2017-08-09T12:40:38.377Z,1016.93
2017-08-09T12:40:38.979Z,1016.95
2017-08-09T12:41:32.531Z,1016.92
2017-08-09T12:41:33.129Z,1016.89
2017-08-09T12:41:33.731Z,1016.92
2017-08-09T12:41:34.331Z,1016.91
2017-08-09T12:41:34.929Z,1016.90
2017-08-09T12:41:35.528Z,1016.87
2017-08-09T12:41:36.127Z,1016.85
2017-08-09T12:41:36.735Z,1016.88
2017-08-09T12:42:30.285Z,1016.80
2017-08-09T12:42:30.885Z,1016.79
2017-08-09T12:42:31.483Z,1016.77
2017-08-09T12:42:32.085Z,1016.76
2017-08-09T12:42:32.688Z,1016.79
2017-08-09T12:42:33.285Z,1016.77
2017-08-09T12:42:33.885Z,1016.77
2017-08-09T12:42:34.487Z,1016.74
2017-08-09T12:43:28.970Z,1016.72
2017-08-09T12:43:29.564Z,1016.74
2017-08-09T12:43:30.162Z,1016.73
2017-08-09T12:43:30.755Z,1016.70
2017-08-09T12:43:31.355Z,1016.69
2017-08-09T12:43:31.957Z,1016.71
2017-08-09T12:43:32.559Z,1016.71
2017-08-09T12:43:33.161Z,1016.71
2017-08-09T12:44:26.616Z,1016.72
2017-08-09T12:44:27.216Z,1016.71
2017-08-09T12:44:27.820Z,1016.70
2017-08-09T12:44:28.413Z,1016.73
2017-08-09T12:44:29.021Z,1016.73
2017-08-09T12:44:29.616Z,1016.73
2017-08-09T12:44:30.214Z,1016.71
2017-08-09T12:44:30.817Z,1016.73
2017-08-09T12:45:25.322Z,1016.66
2017-08-09T12:45:25.898Z,1016.67
2017-08-09T12:45:26.495Z,1016.68
2017-08-09T12:45:27.095Z,1016.68
2017-08-09T12:45:27.693Z,1016.66
2017-08-09T12:45:28.291Z,1016.67
2017-08-09T12:45:28.891Z,1016.65
2017-08-09T12:45:29.491Z,1016.67
2017-08-09T12:46:23.049Z,1016.69
2017-08-09T12:46:23.665Z,1016.72
2017-08-09T12:46:25.025Z,1016.70
2017-08-09T12:46:25.537Z,1016.72
2017-08-09T12:46:26.139Z,1016.74
2017-08-09T12:46:26.745Z,1016.77
2017-08-09T12:46:27.343Z,1016.75
2017-08-09T12:47:21.824Z,1016.76
2017-08-09T12:47:22.421Z,1016.77
2017-08-09T12:47:23.014Z,1016.79
2017-08-09T12:47:23.619Z,1016.79
2017-08-09T12:47:24.217Z,1016.83
2017-08-09T12:47:24.818Z,1016.81
2017-08-09T12:47:25.442Z,1016.83
2017-08-09T12:47:26.018Z,1016.84
2017-08-09T12:48:20.504Z,1016.86
2017-08-09T12:48:21.099Z,1016.85
2017-08-09T12:48:21.695Z,1016.83
2017-08-09T12:48:22.298Z,1016.86
2017-08-09T12:48:22.895Z,1016.86
2017-08-09T12:48:23.499Z,1016.84
2017-08-09T12:48:24.091Z,1016.87
2017-08-09T12:48:24.694Z,1016.85
2017-08-09T12:49:19.173Z,1016.87
2017-08-09T12:49:19.770Z,1016.88
2017-08-09T12:49:20.368Z,1016.88
2017-08-09T12:49:20.982Z,1016.87
2017-08-09T12:49:21.571Z,1016.91
2017-08-09T12:49:22.166Z,1016.89
2017-08-09T12:49:22.767Z,1016.89
2017-08-09T12:49:23.371Z,1016.89
2017-08-09T12:50:18.673Z,1016.92
2017-08-09T12:50:19.266Z,1016.95
2017-08-09T12:50:19.870Z,1016.94
2017-08-09T12:50:20.468Z,1016.91
2017-08-09T12:50:21.073Z,1016.95
2017-08-09T12:50:21.667Z,1016.93
2017-08-09T12:50:22.266Z,1016.91
2017-08-09T12:50:22.864Z,1016.93
2017-08-09T12:51:16.446Z,1016.80
2017-08-09T12:51:17.021Z,1016.80
2017-08-09T12:51:17.621Z,1016.82
2017-08-09T12:51:18.225Z,1016.80
2017-08-09T12:51:18.823Z,1016.79
2017-08-09T12:51:19.421Z,1016.81
2017-08-09T12:51:20.017Z,1016.82
2017-08-09T12:51:20.620Z,1016.82
2017-08-09T12:52:15.510Z,1016.90
2017-08-09T12:52:16.108Z,1016.87
2017-08-09T12:52:16.742Z,1016.89
2017-08-09T12:52:17.306Z,1016.86
2017-08-09T12:52:17.908Z,1016.89
2017-08-09T12:52:18.503Z,1016.89
2017-08-09T12:52:19.118Z,1016.88
2017-08-09T12:53:13.566Z,1016.82
2017-08-09T12:53:14.168Z,1016.80
2017-08-09T12:53:14.762Z,1016.83
2017-08-09T12:53:15.372Z,1016.83
2017-08-09T12:53:15.970Z,1016.86
2017-08-09T12:53:16.567Z,1016.84
2017-08-09T12:53:17.170Z,1016.84
2017-08-09T12:53:17.767Z,1016.85
2017-08-09T12:54:12.272Z,1016.74
2017-08-09T12:54:12.843Z,1016.74
2017-08-09T12:54:13.458Z,1016.77
2017-08-09T12:54:14.042Z,1016.77
2017-08-09T12:54:14.660Z,1016.74
2017-08-09T12:54:15.244Z,1016.73
2017-08-09T12:54:15.873Z,1016.74
2017-08-09T12:54:16.445Z,1016.75
2017-08-09T12:55:10.917Z,1016.73
2017-08-09T12:55:11.514Z,1016.67
2017-08-09T12:55:12.114Z,1016.72
2017-08-09T12:55:12.718Z,1016.73
2017-08-09T12:55:13.312Z,1016.69
2017-08-09T12:55:13.915Z,1016.75
2017-08-09T12:55:14.519Z,1016.72
2017-08-09T12:55:15.116Z,1016.72
2017-08-09T12:56:09.733Z,1016.82
2017-08-09T12:56:10.296Z,1016.80
2017-08-09T12:56:10.899Z,1016.81
2017-08-09T12:56:11.496Z,1016.84
2017-08-09T12:56:12.099Z,1016.82
2017-08-09T12:56:12.692Z,1016.78
2017-08-09T12:56:13.295Z,1016.82
2017-08-09T12:56:13.894Z,1016.81
2017-08-09T12:57:07.454Z,1016.81
2017-08-09T12:57:08.055Z,1016.82
2017-08-09T12:57:08.657Z,1016.79
2017-08-09T12:57:09.251Z,1016.80
2017-08-09T12:57:09.855Z,1016.79
2017-08-09T12:57:10.449Z,1016.75
2017-08-09T12:57:11.048Z,1016.81
2017-08-09T12:57:11.650Z,1016.76
2017-08-09T12:58:05.223Z,1016.77
2017-08-09T12:58:05.802Z,1016.79
2017-08-09T12:58:06.416Z,1016.78
2017-08-09T12:58:07.009Z,1016.77
2017-08-09T12:58:07.607Z,1016.78
2017-08-09T12:58:08.209Z,1016.79
2017-08-09T12:58:08.820Z,1016.76
2017-08-09T12:58:09.406Z,1016.78
2017-08-09T12:59:03.477Z,1016.82
2017-08-09T12:59:04.072Z,1016.83
2017-08-09T12:59:04.670Z,1016.82
2017-08-09T12:59:05.272Z,1016.82
2017-08-09T12:59:05.880Z,1016.82
2017-08-09T12:59:06.475Z,1016.83
2017-08-09T12:59:07.071Z,1016.83
2017-08-09T13:00:03.891Z,1016.94
2017-08-09T13:00:04.482Z,1016.93
2017-08-09T13:00:05.088Z,1016.92
2017-08-09T13:00:05.684Z,1016.94
2017-08-09T13:00:06.288Z,1016.93
2017-08-09T13:00:06.888Z,1016.94
2017-08-09T13:01:24.005Z,1016.93
2017-08-09T13:01:24.568Z,1016.91
2017-08-09T13:01:25.171Z,1016.92
2017-08-09T13:02:26.123Z,1016.92
2017-08-09T13:02:26.719Z,1016.86
2017-08-09T13:02:27.318Z,1016.88
2017-08-09T13:02:27.916Z,1016.86
2017-08-09T13:02:28.516Z,1016.87
2017-08-09T13:02:29.123Z,1016.83
2017-08-09T13:02:29.722Z,1016.85
2017-08-09T13:02:30.322Z,1016.86
2017-08-09T13:02:30.923Z,1016.86
2017-08-09T13:02:31.516Z,1016.87
2017-08-09T13:02:32.128Z,1016.88
2017-08-09T13:02:32.738Z,1016.92
2017-08-09T13:03:38.218Z,1016.88
2017-08-09T13:03:38.812Z,1016.84
2017-08-09T13:03:39.409Z,1016.88
2017-08-09T13:03:40.020Z,1016.86
2017-08-09T13:03:40.616Z,1016.86
2017-08-09T13:03:41.212Z,1016.88
2017-08-09T13:04:54.706Z,1016.90
2017-08-09T13:04:55.305Z,1016.91
2017-08-09T13:04:55.912Z,1016.92
2017-08-09T13:04:56.516Z,1016.90
2017-08-09T13:04:57.111Z,1016.91
2017-08-09T13:04:57.706Z,1016.92
2017-08-09T13:04:58.300Z,1016.91
2017-08-09T13:04:58.902Z,1016.89
2017-08-09T13:05:52.463Z,1016.85
2017-08-09T13:05:53.056Z,1016.89
2017-08-09T13:05:53.666Z,1016.90
2017-08-09T13:05:54.260Z,1016.89
2017-08-09T13:05:54.856Z,1016.89
2017-08-09T13:05:55.456Z,1016.89
2017-08-09T13:05:56.075Z,1016.89
2017-08-09T13:05:56.660Z,1016.90
2017-08-09T13:06:50.253Z,1016.84
2017-08-09T13:06:50.815Z,1016.83
2017-08-09T13:06:51.418Z,1016.80
2017-08-09T13:06:52.015Z,1016.82
2017-08-09T13:06:52.610Z,1016.83
2017-08-09T13:06:53.211Z,1016.82
2017-08-09T13:06:53.815Z,1016.74
2017-08-09T13:06:54.411Z,1016.81
2017-08-09T13:07:47.988Z,1016.87
2017-08-09T13:07:48.570Z,1016.90
2017-08-09T13:07:49.173Z,1016.90
2017-08-09T13:07:49.795Z,1016.89
2017-08-09T13:07:50.368Z,1016.89
2017-08-09T13:07:50.968Z,1016.88
2017-08-09T13:07:51.571Z,1016.88
2017-08-09T13:07:52.177Z,1016.86
2017-08-09T13:08:46.648Z,1016.88
2017-08-09T13:08:47.249Z,1016.86
2017-08-09T13:08:47.845Z,1016.90
2017-08-09T13:08:48.445Z,1016.90
2017-08-09T13:08:49.046Z,1016.87
2017-08-09T13:08:49.638Z,1016.88
2017-08-09T13:08:50.240Z,1016.87
2017-08-09T13:08:50.855Z,1016.87
2017-08-09T13:09:45.330Z,1016.83
2017-08-09T13:09:45.922Z,1016.83
2017-08-09T13:09:46.524Z,1016.84
2017-08-09T13:09:47.125Z,1016.84
2017-08-09T13:09:47.717Z,1016.85
2017-08-09T13:09:48.314Z,1016.84
2017-08-09T13:09:48.913Z,1016.83
2017-08-09T13:09:49.517Z,1016.84
2017-08-09T13:10:43.074Z,1016.81
2017-08-09T13:10:43.673Z,1016.87
2017-08-09T13:10:44.280Z,1016.87
2017-08-09T13:10:44.870Z,1016.87
2017-08-09T13:10:45.472Z,1016.87
2017-08-09T13:10:46.078Z,1016.89
2017-08-09T13:10:46.675Z,1016.86
2017-08-09T13:10:47.273Z,1016.87
2017-08-09T13:11:41.771Z,1016.88
2017-08-09T13:11:42.357Z,1016.94
2017-08-09T13:11:42.958Z,1016.95
2017-08-09T13:11:43.542Z,1016.93
2017-08-09T13:11:44.151Z,1016.94
2017-08-09T13:11:44.751Z,1016.94
2017-08-09T13:11:45.346Z,1016.92
2017-08-09T13:11:45.948Z,1016.92
2017-08-09T13:12:40.162Z,1016.80
2017-08-09T13:12:40.726Z,1016.80
2017-08-09T13:12:41.235Z,1016.80
2017-08-09T13:12:41.836Z,1016.81
2017-08-09T13:12:42.434Z,1016.81
2017-08-09T13:12:43.052Z,1016.80
2017-08-09T13:12:43.638Z,1016.82
2017-08-09T13:13:37.156Z,1016.89
2017-08-09T13:13:37.757Z,1016.86
2017-08-09T13:13:38.389Z,1016.90
2017-08-09T13:13:38.974Z,1016.90
2017-08-09T13:13:39.570Z,1016.88
2017-08-09T13:13:40.157Z,1016.86
2017-08-09T13:13:40.776Z,1016.88
2017-08-09T13:13:41.375Z,1016.88
2017-08-09T13:14:35.324Z,1016.87
2017-08-09T13:14:35.919Z,1016.82
2017-08-09T13:14:36.520Z,1016.84
2017-08-09T13:14:37.120Z,1016.83
2017-08-09T13:14:37.718Z,1016.84
2017-08-09T13:14:38.320Z,1016.82
2017-08-09T13:14:38.915Z,1016.83
2017-08-09T13:15:33.382Z,1016.80
2017-08-09T13:15:33.975Z,1016.78
2017-08-09T13:15:34.578Z,1016.74
2017-08-09T13:15:35.179Z,1016.80
2017-08-09T13:15:35.799Z,1016.77
2017-08-09T13:15:36.381Z,1016.79
2017-08-09T13:15:36.975Z,1016.77
2017-08-09T13:15:37.583Z,1016.78
2017-08-09T13:16:32.059Z,1016.72
2017-08-09T13:16:32.656Z,1016.75
2017-08-09T13:16:33.251Z,1016.72
2017-08-09T13:16:33.850Z,1016.75
2017-08-09T13:16:34.460Z,1016.72
2017-08-09T13:16:35.053Z,1016.75
2017-08-09T13:16:35.656Z,1016.75
2017-08-09T13:16:36.255Z,1016.77
2017-08-09T13:17:30.760Z,1016.73
2017-08-09T13:17:31.332Z,1016.77
2017-08-09T13:17:31.930Z,1016.72
2017-08-09T13:17:32.528Z,1016.77
2017-08-09T13:17:33.128Z,1016.76
2017-08-09T13:17:33.730Z,1016.77
2017-08-09T13:17:34.325Z,1016.77
2017-08-09T13:17:34.932Z,1016.78
2017-08-09T13:18:29.408Z,1016.78
2017-08-09T13:18:30.005Z,1016.76
2017-08-09T13:18:30.608Z,1016.77
2017-08-09T13:18:31.207Z,1016.76
2017-08-09T13:18:31.803Z,1016.81
2017-08-09T13:18:32.400Z,1016.79
2017-08-09T13:18:33.005Z,1016.79
2017-08-09T13:18:33.601Z,1016.81
2017-08-09T13:19:27.294Z,1016.90
2017-08-09T13:19:27.889Z,1016.86
2017-08-09T13:19:28.485Z,1016.87
2017-08-09T13:19:29.074Z,1016.88
2017-08-09T13:19:29.683Z,1016.88
2017-08-09T13:19:30.269Z,1016.87
2017-08-09T13:19:30.875Z,1016.87
2017-08-09T13:19:31.444Z,1016.87
2017-08-09T13:20:25.839Z,1016.91
2017-08-09T13:20:26.434Z,1016.91
2017-08-09T13:20:27.035Z,1016.89
2017-08-09T13:20:27.637Z,1016.86
2017-08-09T13:20:28.236Z,1016.86
2017-08-09T13:20:28.850Z,1016.89
2017-08-09T13:20:29.433Z,1016.87
2017-08-09T13:20:30.042Z,1016.90
2017-08-09T13:21:23.490Z,1016.81
2017-08-09T13:21:24.094Z,1016.79
2017-08-09T13:21:24.691Z,1016.83
2017-08-09T13:21:25.285Z,1016.81
2017-08-09T13:21:25.884Z,1016.82
2017-08-09T13:21:26.488Z,1016.80
2017-08-09T13:21:27.089Z,1016.82
2017-08-09T13:21:27.696Z,1016.80
2017-08-09T13:22:21.271Z,1016.88
2017-08-09T13:22:21.840Z,1016.86
2017-08-09T13:22:22.447Z,1016.87
2017-08-09T13:22:23.046Z,1016.86
2017-08-09T13:22:23.644Z,1016.87
2017-08-09T13:22:24.245Z,1016.88
2017-08-09T13:22:24.841Z,1016.86
2017-08-09T13:22:25.439Z,1016.80
2017-08-09T13:23:19.916Z,1016.84
2017-08-09T13:23:20.516Z,1016.87
2017-08-09T13:23:21.111Z,1016.85
2017-08-09T13:23:21.711Z,1016.83
2017-08-09T13:23:22.326Z,1016.86
2017-08-09T13:23:22.917Z,1016.84
2017-08-09T13:23:23.521Z,1016.82
2017-08-09T13:23:24.116Z,1016.82
2017-08-09T13:24:18.595Z,1016.87
2017-08-09T13:24:19.194Z,1016.84
2017-08-09T13:24:19.791Z,1016.88
2017-08-09T13:24:20.391Z,1016.86
2017-08-09T13:24:20.994Z,1016.84
2017-08-09T13:24:21.588Z,1016.88
2017-08-09T13:24:22.189Z,1016.86
2017-08-09T13:24:22.790Z,1016.85
2017-08-09T13:25:17.273Z,1016.88
2017-08-09T13:25:17.866Z,1016.85
2017-08-09T13:25:18.465Z,1016.87
2017-08-09T13:25:19.062Z,1016.87
2017-08-09T13:25:19.668Z,1016.88
2017-08-09T13:25:20.262Z,1016.88
2017-08-09T13:25:20.866Z,1016.90
2017-08-09T13:25:21.464Z,1016.87
2017-08-09T13:26:15.024Z,1016.85
2017-08-09T13:26:15.618Z,1016.83
2017-08-09T13:26:16.230Z,1016.84
2017-08-09T13:26:16.824Z,1016.83
2017-08-09T13:26:17.426Z,1016.82
2017-08-09T13:26:18.024Z,1016.86
2017-08-09T13:26:18.624Z,1016.85
2017-08-09T13:26:19.221Z,1016.83
2017-08-09T13:27:12.779Z,1016.83
2017-08-09T13:27:13.378Z,1016.83
2017-08-09T13:27:13.989Z,1016.83
2017-08-09T13:27:14.576Z,1016.83
2017-08-09T13:27:15.181Z,1016.82
2017-08-09T13:27:15.778Z,1016.84
2017-08-09T13:27:16.377Z,1016.86
2017-08-09T13:27:16.980Z,1016.83
2017-08-09T13:28:10.558Z,1016.85
2017-08-09T13:28:11.128Z,1016.88
2017-08-09T13:28:11.730Z,1016.87
2017-08-09T13:28:12.331Z,1016.90
2017-08-09T13:28:12.929Z,1016.90
2017-08-09T13:28:13.527Z,1016.89
2017-08-09T13:28:14.130Z,1016.87
2017-08-09T13:28:14.731Z,1016.90
2017-08-09T13:29:08.795Z,1016.87
2017-08-09T13:29:09.393Z,1016.87
2017-08-09T13:29:10.002Z,1016.84
2017-08-09T13:29:10.599Z,1016.86
2017-08-09T13:29:11.200Z,1016.85
2017-08-09T13:29:11.798Z,1016.87
2017-08-09T13:29:12.396Z,1016.87
2017-08-09T13:29:12.992Z,1016.85
2017-08-09T13:30:07.989Z,1016.83
2017-08-09T13:30:08.583Z,1016.85
2017-08-09T13:30:09.188Z,1016.81
2017-08-09T13:30:09.784Z,1016.83
2017-08-09T13:30:10.386Z,1016.84
2017-08-09T13:30:10.996Z,1016.84
2017-08-09T13:31:05.025Z,1016.85
2017-08-09T13:31:05.622Z,1016.88
2017-08-09T13:31:06.225Z,1016.86
2017-08-09T13:31:06.839Z,1016.84
2017-08-09T13:31:07.425Z,1016.84
2017-08-09T13:31:08.023Z,1016.85
2017-08-09T13:31:08.625Z,1016.86
2017-08-09T13:31:09.222Z,1016.88
2017-08-09T13:32:22.846Z,1016.81
2017-08-09T13:32:23.444Z,1016.80
2017-08-09T13:32:24.044Z,1016.84
2017-08-09T13:32:24.726Z,1016.85
2017-08-09T13:32:25.250Z,1016.85
2017-08-09T13:32:25.845Z,1016.85
2017-08-09T13:32:26.446Z,1016.86
2017-08-09T13:32:27.043Z,1016.86
2017-08-09T13:33:22.070Z,1016.88
2017-08-09T13:33:22.642Z,1016.88
2017-08-09T13:33:23.237Z,1016.87
2017-08-09T13:33:23.833Z,1016.88
2017-08-09T13:33:24.434Z,1016.85
2017-08-09T13:33:25.041Z,1016.85
2017-08-09T13:34:19.587Z,1016.91
2017-08-09T13:34:20.179Z,1016.92
2017-08-09T13:34:20.782Z,1016.95
2017-08-09T13:34:21.379Z,1016.92
2017-08-09T13:34:22.061Z,1016.91
2017-08-09T13:34:22.586Z,1016.92
2017-08-09T13:34:23.183Z,1016.88
2017-08-09T13:35:24.202Z,1016.98
2017-08-09T13:35:24.796Z,1017.00
2017-08-09T13:35:25.406Z,1016.99
2017-08-09T13:35:25.996Z,1016.97
2017-08-09T13:35:26.596Z,1016.94
2017-08-09T13:35:27.202Z,1016.97
2017-08-09T13:35:27.803Z,1016.98
2017-08-09T13:35:28.402Z,1016.94
2017-08-09T13:35:28.998Z,1016.94
2017-08-09T13:35:29.605Z,1016.97
2017-08-09T13:35:30.197Z,1016.98
2017-08-09T13:35:30.798Z,1016.95
2017-08-09T13:36:24.314Z,1016.84
2017-08-09T13:36:24.910Z,1016.86
2017-08-09T13:36:25.517Z,1016.84
2017-08-09T13:36:26.110Z,1016.86
2017-08-09T13:36:26.721Z,1016.86
2017-08-09T13:36:27.310Z,1016.86
2017-08-09T13:36:27.904Z,1016.88
2017-08-09T13:36:28.503Z,1016.84
2017-08-09T13:37:32.098Z,1016.97
2017-08-09T13:37:32.693Z,1016.96
2017-08-09T13:37:33.297Z,1016.97
2017-08-09T13:37:33.944Z,1016.99
2017-08-09T13:37:34.493Z,1017.01
2017-08-09T13:37:35.093Z,1016.94
2017-08-09T13:37:35.696Z,1016.96
2017-08-09T13:37:36.303Z,1016.97
2017-08-09T13:38:29.883Z,1016.95
2017-08-09T13:38:30.447Z,1016.98
2017-08-09T13:38:31.069Z,1016.91
2017-08-09T13:38:31.646Z,1016.93
2017-08-09T13:38:32.248Z,1016.95
2017-08-09T13:38:32.853Z,1016.95
2017-08-09T13:38:33.457Z,1016.91
2017-08-09T13:38:34.051Z,1016.91
2017-08-09T13:39:29.040Z,1016.86
2017-08-09T13:39:29.645Z,1016.86
2017-08-09T13:39:30.237Z,1016.92
2017-08-09T13:39:30.835Z,1016.92
2017-08-09T13:39:31.434Z,1016.90
2017-08-09T13:39:32.040Z,1016.86
2017-08-09T13:40:26.082Z,1016.91
2017-08-09T13:40:26.676Z,1016.87
2017-08-09T13:40:27.272Z,1016.91
2017-08-09T13:40:27.875Z,1016.90
2017-08-09T13:40:28.612Z,1016.94
2017-08-09T13:40:29.095Z,1016.96
2017-08-09T13:40:29.673Z,1016.92
2017-08-09T13:40:30.278Z,1016.95
2017-08-09T13:41:25.261Z,1016.90
2017-08-09T13:41:25.860Z,1016.87
2017-08-09T13:41:26.463Z,1016.87
2017-08-09T13:41:27.058Z,1016.87
2017-08-09T13:41:27.658Z,1016.86
2017-08-09T13:41:28.258Z,1016.89
2017-08-09T13:41:28.861Z,1016.88
2017-08-09T13:42:22.407Z,1016.89
2017-08-09T13:42:23.005Z,1016.93
2017-08-09T13:42:23.615Z,1016.90
2017-08-09T13:42:24.210Z,1016.90
2017-08-09T13:42:24.804Z,1016.89
2017-08-09T13:42:25.403Z,1016.91
2017-08-09T13:42:26.003Z,1016.89
2017-08-09T13:42:26.603Z,1016.94
2017-08-09T13:43:22.617Z,1016.91
2017-08-09T13:43:23.215Z,1016.89
2017-08-09T13:43:23.821Z,1016.91
2017-08-09T13:43:24.409Z,1016.91
2017-08-09T13:43:25.009Z,1016.91
2017-08-09T13:43:25.609Z,1016.91
2017-08-09T13:44:19.679Z,1016.86
2017-08-09T13:44:20.248Z,1016.83
2017-08-09T13:44:20.852Z,1016.85
2017-08-09T13:44:21.451Z,1016.86
2017-08-09T13:44:22.056Z,1016.87
2017-08-09T13:44:22.656Z,1016.87
2017-08-09T13:44:23.251Z,1016.88
2017-08-09T13:44:23.853Z,1016.88
2017-08-09T13:45:17.814Z,1016.93
2017-08-09T13:45:18.413Z,1016.93
2017-08-09T13:45:19.018Z,1016.96